M I D A S
Marine Information and Data Acquisition System
Tripno 2081 of the Zeeleeuw from 2011-04-20 06:41:16 to 2011-04-20 14:45:01
Back to CruiseResearch ActivitiesStationsMapUnderway DataData graphs

EquipmentUnitsComment
TimeDGPSUTC
LatitudeDGPSDM.mWGS84
LongitudeDGPSDM.mWGS84
HeadingGyrodeg 
SOGDGPSknotsSpeed over ground
COGDGPSdegCourse over ground
DepthEcho soundermeters200 kHz
Missing or incorrect values are displayed as -999
Navigation data collected by the RV Zeeleeuw from 2011-04-20 06:39:02 to 2011-04-20 14:47:07
                                                                                    Next 1000 lines
Time Latitude Longitude Heading SOG COG Depth
2011-04-20 06:39:12 51°13.662 2°55.955 109.7 0.9 290 6.7
2011-04-20 06:39:16 51°13.662 2°55.953 109.6 1.3 298 6.8
2011-04-20 06:39:21 51°13.663 2°55.95 109.5 1.6 293 7
2011-04-20 06:39:26 51°13.664 2°55.947 109.5 1.8 295 -999
2011-04-20 06:39:32 51°13.665 2°55.942 109.2 2.1 295 -999
2011-04-20 06:39:38 51°13.667 2°55.936 108.8 2.4 295 -999
2011-04-20 06:39:44 51°13.669 2°55.929 108.2 2.7 292 -999
2011-04-20 06:39:49 51°13.67 2°55.923 107.5 3 291 -999
2011-04-20 06:39:55 51°13.672 2°55.915 106.8 3.3 290 -999
2011-04-20 06:40:00 51°13.674 2°55.908 105.6 3.5 289 -999
2011-04-20 06:40:05 51°13.675 2°55.9 104.6 3.8 287 -999
2011-04-20 06:40:10 51°13.677 2°55.892 103.3 4 286 -999
2011-04-20 06:40:15 51°13.678 2°55.883 102.4 4.1 285 -999
2011-04-20 06:40:20 51°13.68 2°55.874 101.8 4.1 285 -999
2011-04-20 06:40:25 51°13.681 2°55.866 101.5 4 284 -999
2011-04-20 06:40:30 51°13.682 2°55.857 101.1 3.8 283 -999
2011-04-20 06:40:35 51°13.683 2°55.849 100.5 3.7 283 -999
2011-04-20 06:40:40 51°13.684 2°55.842 100.1 3.6 282 -999
2011-04-20 06:40:45 51°13.686 2°55.834 99.3 3.5 282 -999
2011-04-20 06:40:50 51°13.687 2°55.826 98.4 3.4 281 -999
2011-04-20 06:40:55 51°13.688 2°55.819 97.9 3.4 281 -999
2011-04-20 06:41:00 51°13.688 2°55.812 97.3 3.3 280 -999
2011-04-20 06:41:05 51°13.689 2°55.805 96.9 3.2 279 -999
2011-04-20 06:41:10 51°13.69 2°55.798 96 3.1 278 4.8
2011-04-20 06:41:15 51°13.69 2°55.791 95.1 3.1 277 10.7
2011-04-20 06:41:20 51°13.69 2°55.785 94.1 3 277 -999
2011-04-20 06:41:25 51°13.691 2°55.779 92.5 2.9 276 -999
2011-04-20 06:41:30 51°13.691 2°55.772 90.7 2.8 274 -999
2011-04-20 06:41:35 51°13.692 2°55.766 88.9 2.7 274 -999
2011-04-20 06:41:40 51°13.692 2°55.76 87.1 2.6 273 -999
2011-04-20 06:41:45 51°13.692 2°55.755 85.6 2.2 269 -999
2011-04-20 06:41:50 51°13.692 2°55.751 83.8 1.9 271 11.3
2011-04-20 06:41:55 51°13.692 2°55.748 81.7 1.5 272 11.3
2011-04-20 06:42:00 51°13.692 2°55.745 79.6 1.2 272 11.5
2011-04-20 06:42:04 51°13.692 2°55.744 76.6 0.9 273 11.6
2011-04-20 06:42:09 51°13.692 2°55.742 73.4 0.6 285 11.6
2011-04-20 06:42:14 51°13.692 2°55.741 69.9 0.4 311 11.6
2011-04-20 06:42:20 51°13.693 2°55.741 66.1 0.4 352 11.6
2011-04-20 06:42:24 51°13.694 2°55.741 62.1 0.5 13 11.6
2011-04-20 06:42:29 51°13.695 2°55.742 57.6 0.7 19 11.4
2011-04-20 06:42:34 51°13.696 2°55.743 53.1 0.8 24 11.4
2011-04-20 06:42:39 51°13.697 2°55.743 48.5 0.9 23 11.1
2011-04-20 06:42:44 51°13.698 2°55.744 43.6 1 23 11.1
2011-04-20 06:42:49 51°13.7 2°55.745 38.9 1.2 20 11.2
2011-04-20 06:42:54 51°13.702 2°55.746 34.2 1.3 17 11.6
2011-04-20 06:42:59 51°13.704 2°55.747 29.5 1.4 16 11.9
2011-04-20 06:43:04 51°13.706 2°55.748 23.6 1.6 9 -999
2011-04-20 06:43:10 51°13.709 2°55.748 18.7 1.7 5 -999
2011-04-20 06:43:15 51°13.711 2°55.748 12.8 1.8 1 -999
2011-04-20 06:43:20 51°13.714 2°55.748 6.7 2 357 -999
2011-04-20 06:43:25 51°13.717 2°55.747 1.7 2.2 351 11.6
2011-04-20 06:43:30 51°13.72 2°55.746 357.4 2.3 347 11.3
2011-04-20 06:43:35 51°13.723 2°55.744 353 2.4 342 11.3
2011-04-20 06:43:40 51°13.727 2°55.742 347.5 2.6 338 10.9
2011-04-20 06:43:44 51°13.73 2°55.74 343 2.7 334 10.6
2011-04-20 06:43:50 51°13.734 2°55.736 337.5 3 330 10.3
2011-04-20 06:43:55 51°13.738 2°55.732 332.6 3.4 329 10
2011-04-20 06:44:00 51°13.742 2°55.727 329.5 3.9 325 9.7
2011-04-20 06:44:04 51°13.746 2°55.723 327.4 4.5 325 -999
2011-04-20 06:44:09 51°13.752 2°55.716 326.3 5 323 10.1
2011-04-20 06:44:15 51°13.759 2°55.707 325.5 5.5 323 -999
2011-04-20 06:44:20 51°13.766 2°55.7 325 6 323 -999
2011-04-20 06:44:25 51°13.773 2°55.691 324.8 6.5 324 9.8
2011-04-20 06:44:30 51°13.781 2°55.683 325.1 7 325 -999
2011-04-20 06:44:35 51°13.79 2°55.674 326.9 7.4 327 -999
2011-04-20 06:44:40 51°13.799 2°55.665 328.4 7.7 329 -999
2011-04-20 06:44:45 51°13.809 2°55.656 329.9 8 331 -999
2011-04-20 06:44:50 51°13.819 2°55.648 330.9 8.3 332 -999
2011-04-20 06:44:55 51°13.83 2°55.639 331.8 8.6 333 9.9
2011-04-20 06:45:00 51°13.841 2°55.631 332.7 8.9 335 9.9
2011-04-20 06:45:04 51°13.85 2°55.624 334 9.2 335 9.8
2011-04-20 06:45:09 51°13.862 2°55.614 334.4 9.5 334 9.8
2011-04-20 06:45:15 51°13.877 2°55.603 333.9 9.7 334 -999
2011-04-20 06:45:20 51°13.889 2°55.594 334 9.9 335 -999
2011-04-20 06:45:25 51°13.902 2°55.584 335 10.1 335 -999
2011-04-20 06:45:30 51°13.915 2°55.575 335.5 10.3 336 9.8
2011-04-20 06:45:35 51°13.928 2°55.566 335.8 10.4 335 -999
2011-04-20 06:45:40 51°13.941 2°55.556 335.8 10.4 336 9.7
2011-04-20 06:45:44 51°13.952 2°55.548 336.1 10.5 335 9.7
2011-04-20 06:45:49 51°13.965 2°55.539 336.2 10.6 336 -999
2011-04-20 06:45:54 51°13.979 2°55.53 336.3 10.6 336 9.7
2011-04-20 06:45:59 51°13.993 2°55.52 336.6 10.7 337 -999
2011-04-20 06:46:04 51°14.006 2°55.511 336.6 10.8 337 9.6
2011-04-20 06:46:09 51°14.02 2°55.501 336.6 10.9 336 9.6
2011-04-20 06:46:14 51°14.034 2°55.492 336.7 10.9 337 -999
2011-04-20 06:46:20 51°14.051 2°55.479 337.3 11 336 9.5
2011-04-20 06:46:24 51°14.062 2°55.472 337 11 335 -999
2011-04-20 06:46:30 51°14.079 2°55.459 336.5 11.1 335 -999
2011-04-20 06:46:35 51°14.093 2°55.449 336.6 11.2 334 -999
2011-04-20 06:46:40 51°14.106 2°55.437 336 11.3 334 -999
2011-04-20 06:46:45 51°14.12 2°55.426 334.9 11.3 333 -999
2011-04-20 06:46:50 51°14.134 2°55.414 334.3 11.3 333 -999
2011-04-20 06:46:55 51°14.148 2°55.403 334.3 11.2 332 -999
2011-04-20 06:47:00 51°14.161 2°55.392 333.5 10.9 332 9.3
2011-04-20 06:47:05 51°14.174 2°55.381 332.9 10.5 331 -999
2011-04-20 06:47:10 51°14.186 2°55.369 331.7 10.1 330 -999
2011-04-20 06:47:15 51°14.198 2°55.358 330.8 9.8 329 -999
2011-04-20 06:47:20 51°14.21 2°55.347 330.2 9.5 329 -999
2011-04-20 06:47:25 51°14.22 2°55.336 329.7 9.2 328 -999
2011-04-20 06:47:30 51°14.231 2°55.326 329.4 8.9 328 -999
2011-04-20 06:47:35 51°14.241 2°55.316 329.3 8.6 328 -999
2011-04-20 06:47:40 51°14.251 2°55.306 329 8.4 328 -999
2011-04-20 06:47:45 51°14.26 2°55.297 328.4 8.1 327 -999
2011-04-20 06:47:50 51°14.269 2°55.287 327.9 7.8 327 -999
2011-04-20 06:47:55 51°14.278 2°55.278 327.7 7.5 327 -999
2011-04-20 06:48:00 51°14.287 2°55.269 327.7 7.3 327 -999
2011-04-20 06:48:05 51°14.295 2°55.261 327.7 7 327 -999
2011-04-20 06:48:10 51°14.303 2°55.253 328 6.8 328 -999
2011-04-20 06:48:15 51°14.31 2°55.245 328.3 6.5 328 -999
2011-04-20 06:48:20 51°14.318 2°55.238 328.5 6.3 328 9.4
2011-04-20 06:48:25 51°14.325 2°55.23 328.6 6.1 328 -999
2011-04-20 06:48:30 51°14.332 2°55.224 328.7 5.9 328 -999
2011-04-20 06:48:35 51°14.339 2°55.217 328.6 5.7 327 -999
2011-04-20 06:48:40 51°14.345 2°55.21 328.3 5.6 327 9.5
2011-04-20 06:48:44 51°14.35 2°55.205 328.2 5.4 327 -999
2011-04-20 06:48:50 51°14.357 2°55.197 328.1 5.3 327 -999
2011-04-20 06:48:55 51°14.363 2°55.191 328.1 5.1 327 -999
2011-04-20 06:49:00 51°14.369 2°55.185 328.1 5 328 -999
2011-04-20 06:49:05 51°14.375 2°55.179 328.1 4.9 327 -999
2011-04-20 06:49:10 51°14.381 2°55.174 328.1 4.8 327 -999
2011-04-20 06:49:15 51°14.386 2°55.168 327.8 4.7 326 9.3
2011-04-20 06:49:20 51°14.392 2°55.162 327.6 4.7 326 9.3
2011-04-20 06:49:24 51°14.396 2°55.158 327.4 4.7 326 9.1
2011-04-20 06:49:30 51°14.403 2°55.151 327.2 4.8 326 -999
2011-04-20 06:49:35 51°14.408 2°55.144 327.2 5 326 9.1
2011-04-20 06:49:40 51°14.414 2°55.138 327.2 5.2 326 -999
2011-04-20 06:49:45 51°14.42 2°55.131 327.4 5.5 326 -999
2011-04-20 06:49:50 51°14.427 2°55.124 327.6 5.8 326 9.4
2011-04-20 06:49:55 51°14.434 2°55.116 327.4 6.3 325 9.3
2011-04-20 06:49:59 51°14.441 2°55.109 326.6 6.8 325 9.4
2011-04-20 06:50:04 51°14.449 2°55.1 325.9 7.3 323 -999
2011-04-20 06:50:10 51°14.459 2°55.087 324.4 7.8 322 9.6
2011-04-20 06:50:15 51°14.468 2°55.075 322.9 8.4 319 -999
2011-04-20 06:50:20 51°14.477 2°55.062 320.9 8.7 319 -999
2011-04-20 06:50:24 51°14.484 2°55.051 319.6 9.2 318 10
2011-04-20 06:50:29 51°14.494 2°55.037 318.8 9.7 317 9.5
2011-04-20 06:50:35 51°14.506 2°55.018 317.6 10 315 10.1
2011-04-20 06:50:39 51°14.514 2°55.005 316.8 10.4 314 10
2011-04-20 06:50:44 51°14.524 2°54.987 316.1 10.8 313 10.2
2011-04-20 06:50:48 51°14.533 2°54.973 315.7 11.1 312 10.5
2011-04-20 06:50:53 51°14.543 2°54.954 315.2 11.5 311 10.8
2011-04-20 06:50:58 51°14.554 2°54.934 315.2 11.9 309 10.2
2011-04-20 06:51:03 51°14.564 2°54.912 314.3 12.3 307 10.2
2011-04-20 06:51:08 51°14.574 2°54.89 312.6 12.5 306 10.2
2011-04-20 06:51:12 51°14.582 2°54.872 312.2 12.8 306 10.2
2011-04-20 06:51:17 51°14.593 2°54.848 312.1 13 305 10.2
2011-04-20 06:51:22 51°14.603 2°54.825 311.9 13.2 306 10.3
2011-04-20 06:51:27 51°14.614 2°54.801 312.3 13.2 307 10.2
2011-04-20 06:51:32 51°14.625 2°54.778 313.2 13.3 308 10
2011-04-20 06:51:36 51°14.634 2°54.759 314.4 13.3 309 10.2
2011-04-20 06:51:41 51°14.646 2°54.737 315.6 13.3 310 10
2011-04-20 06:51:47 51°14.661 2°54.709 315.8 13.4 309 9.9
2011-04-20 06:51:51 51°14.67 2°54.691 315.8 13.4 310 9.8
2011-04-20 06:51:56 51°14.682 2°54.668 315.7 13.4 309 9.9
2011-04-20 06:52:01 51°14.694 2°54.645 315.3 13.4 309 9.8
2011-04-20 06:52:06 51°14.705 2°54.622 314.8 13.4 308 9.8
2011-04-20 06:52:12 51°14.718 2°54.593 313.6 13.5 307 9.6
2011-04-20 06:52:16 51°14.727 2°54.574 312.2 13.4 305 9.6
2011-04-20 06:52:21 51°14.738 2°54.55 311.2 13.5 305 9.7
2011-04-20 06:52:26 51°14.749 2°54.526 310.7 13.5 305 9.5
2011-04-20 06:52:32 51°14.762 2°54.496 310.6 13.5 305 9.2
2011-04-20 06:52:36 51°14.77 2°54.477 310.8 13.4 305 8.8
2011-04-20 06:52:41 51°14.781 2°54.453 311.2 13.4 305 8.6
2011-04-20 06:52:46 51°14.792 2°54.429 311.7 13.4 306 8.6
2011-04-20 06:52:52 51°14.805 2°54.401 313 13.3 308 8.6
2011-04-20 06:52:56 51°14.814 2°54.382 314.4 13.3 309 8.7
2011-04-20 06:53:00 51°14.824 2°54.364 316 13.4 311 8.7
2011-04-20 06:53:06 51°14.839 2°54.339 318 13.3 313 8.7
2011-04-20 06:53:12 51°14.855 2°54.313 319.7 13.3 314 8.6
2011-04-20 06:53:16 51°14.865 2°54.297 320.9 13.2 316 8.2
2011-04-20 06:53:22 51°14.881 2°54.274 322.7 13.1 318 8.2
2011-04-20 06:53:26 51°14.892 2°54.258 324 13 319 7.9
2011-04-20 06:53:31 51°14.906 2°54.24 325.2 12.9 320 7.8
2011-04-20 06:53:36 51°14.919 2°54.222 326.5 12.8 321 5.8
2011-04-20 06:53:41 51°14.933 2°54.204 327.6 12.7 322 7.5
2011-04-20 06:53:47 51°14.95 2°54.184 328.3 12.6 322 7.5
2011-04-20 06:53:52 51°14.964 2°54.167 328.9 12.6 323 7.4
2011-04-20 06:53:56 51°14.975 2°54.154 329.4 12.6 323 7.4
2011-04-20 06:54:02 51°14.991 2°54.133 329.6 12.6 323 7.4
2011-04-20 06:54:06 51°15.003 2°54.12 329.6 12.6 322 7.4
2011-04-20 06:54:12 51°15.019 2°54.099 329.6 12.7 322 7.6
2011-04-20 06:54:16 51°15.03 2°54.085 329.1 12.8 322 7.7
2011-04-20 06:54:21 51°15.044 2°54.067 328.6 12.8 321 7.7
2011-04-20 06:54:27 51°15.06 2°54.045 327.7 12.9 320 7.7
2011-04-20 06:54:32 51°15.074 2°54.026 326.9 13 320 7.8
2011-04-20 06:54:36 51°15.085 2°54.011 326.5 13 319 7.9
2011-04-20 06:54:41 51°15.099 2°53.992 325.2 13.1 317 -999
2011-04-20 06:54:47 51°15.114 2°53.967 323.1 13.1 316 8.1
2011-04-20 06:54:52 51°15.128 2°53.948 322.8 13.1 318 8.1
2011-04-20 06:54:56 51°15.139 2°53.933 323.8 13.1 319 6
2011-04-20 06:55:02 51°15.156 2°53.911 325.1 13.1 321 8.1
2011-04-20 06:55:06 51°15.167 2°53.897 326.9 13.1 323 8.1
2011-04-20 06:55:12 51°15.185 2°53.877 329 13.1 325 8.2
2011-04-20 06:55:16 51°15.197 2°53.864 331.7 13 327 6.1
2011-04-20 06:55:22 51°15.215 2°53.847 334.5 12.9 330 8.4
2011-04-20 06:55:26 51°15.228 2°53.836 336.5 12.8 331 8.3
2011-04-20 06:55:32 51°15.247 2°53.82 338 12.8 332 8.3
2011-04-20 06:55:36 51°15.259 2°53.81 338.8 12.9 333 8.5
2011-04-20 06:55:41 51°15.276 2°53.798 339.9 12.8 335 8.4
2011-04-20 06:55:46 51°15.292 2°53.786 341.3 12.9 335 8.6
2011-04-20 06:55:52 51°15.312 2°53.772 342.4 12.9 337 8.6
2011-04-20 06:55:56 51°15.325 2°53.763 343 12.9 336 8.6
2011-04-20 06:56:02 51°15.344 2°53.749 343.2 12.9 336 8.8
2011-04-20 06:56:06 51°15.357 2°53.74 343.2 12.9 336 8.8
2011-04-20 06:56:12 51°15.377 2°53.725 342.9 13 335 8.8
2011-04-20 06:56:16 51°15.39 2°53.715 342.3 13 334 8.9
2011-04-20 06:56:22 51°15.409 2°53.699 341.2 13 332 8.9
2011-04-20 06:56:26 51°15.422 2°53.688 339.3 13.1 330 9
2011-04-20 06:56:32 51°15.44 2°53.67 337.6 13.1 330 8.9
2011-04-20 06:56:36 51°15.453 2°53.658 336.7 13.2 329 9.2
2011-04-20 06:56:40 51°15.465 2°53.646 336.1 13.2 329 9.3
2011-04-20 06:56:47 51°15.488 2°53.626 336.5 13.2 331 9.3
2011-04-20 06:56:52 51°15.504 2°53.614 338 13.1 334 9.5
2011-04-20 06:56:56 51°15.517 2°53.604 340.3 13 336 9.5
2011-04-20 06:57:00 51°15.531 2°53.597 345 12.8 342 9.2
2011-04-20 06:57:06 51°15.551 2°53.587 347.7 12.7 344 9.6
2011-04-20 06:57:12 51°15.572 2°53.581 352.7 12.6 349 9.9
2011-04-20 06:57:16 51°15.585 2°53.576 355.3 12.6 349 9.8
2011-04-20 06:57:20 51°15.599 2°53.573 356.5 12.6 350 9.4
2011-04-20 06:57:26 51°15.62 2°53.567 356.8 12.6 349 9.6
2011-04-20 06:57:32 51°15.641 2°53.561 357.2 12.6 351 9.8
2011-04-20 06:57:36 51°15.654 2°53.557 357.7 12.6 350 9.7
2011-04-20 06:57:42 51°15.675 2°53.552 357.5 12.6 350 10.3
2011-04-20 06:57:46 51°15.689 2°53.547 357.1 12.7 349 10.7
2011-04-20 06:57:52 51°15.71 2°53.541 357.1 12.7 349 11
2011-04-20 06:57:56 51°15.723 2°53.536 355.8 12.7 346 11
2011-04-20 06:58:02 51°15.744 2°53.527 353.6 12.8 344 11.2
2011-04-20 06:58:06 51°15.757 2°53.52 350.9 12.8 342 11.3
2011-04-20 06:58:12 51°15.778 2°53.509 349.4 12.8 342 11.2
2011-04-20 06:58:16 51°15.791 2°53.502 348.7 12.8 340 11.3
2011-04-20 06:58:22 51°15.811 2°53.49 347.8 12.8 341 11.3
2011-04-20 06:58:26 51°15.825 2°53.482 347.5 12.8 339 11.3
2011-04-20 06:58:32 51°15.845 2°53.471 347.1 12.8 340 11
2011-04-20 06:58:36 51°15.858 2°53.462 346.8 12.8 338 11.1
2011-04-20 06:58:42 51°15.878 2°53.449 345.4 12.8 338 11.1
2011-04-20 06:58:47 51°15.894 2°53.438 344.4 12.9 336 10.6
2011-04-20 06:58:52 51°15.91 2°53.426 343.3 12.9 336 10.4
2011-04-20 06:58:56 51°15.923 2°53.416 342.7 12.9 335 10.3
2011-04-20 06:59:00 51°15.936 2°53.407 342.3 12.9 335 10.3
2011-04-20 06:59:07 51°15.959 2°53.39 342.2 12.9 335 10.3
2011-04-20 06:59:12 51°15.975 2°53.378 342 12.9 335 10.3
2011-04-20 06:59:16 51°15.988 2°53.368 341.7 12.9 334 10.4
2011-04-20 06:59:20 51°16.001 2°53.358 341.9 12.9 335 10.4
2011-04-20 06:59:26 51°16.02 2°53.344 342.4 12.9 336 10.4
2011-04-20 06:59:32 51°16.04 2°53.331 343.4 12.9 337 10.4
2011-04-20 06:59:36 51°16.053 2°53.322 344.4 12.9 338 10.4
2011-04-20 06:59:40 51°16.067 2°53.313 345 12.8 338 10.4
2011-04-20 06:59:46 51°16.086 2°53.301 345.5 12.8 339 10.5
2011-04-20 06:59:52 51°16.106 2°53.289 346.1 12.8 340 10.5
2011-04-20 06:59:56 51°16.12 2°53.281 346.3 12.9 339 10.5
2011-04-20 07:00:02 51°16.14 2°53.268 345.8 12.9 338 10.5
2011-04-20 07:00:06 51°16.153 2°53.26 344.9 12.9 337 10.6
2011-04-20 07:00:12 51°16.173 2°53.246 344.2 12.9 336 10.6
2011-04-20 07:00:16 51°16.186 2°53.236 343.2 13 335 10.6
2011-04-20 07:00:22 51°16.205 2°53.221 342.5 13 335 10.6
2011-04-20 07:00:26 51°16.218 2°53.211 341.9 13 334 10.6
2011-04-20 07:00:32 51°16.238 2°53.196 341.6 13 335 10.6
2011-04-20 07:00:36 51°16.251 2°53.186 341.6 13.1 335 10.6
2011-04-20 07:00:42 51°16.271 2°53.172 342.2 13 336 10.7
2011-04-20 07:00:46 51°16.284 2°53.163 342.7 13 336 10.7
2011-04-20 07:00:52 51°16.304 2°53.149 343.4 13 337 10.7
2011-04-20 07:00:56 51°16.317 2°53.14 344.2 13 338 10.7
2011-04-20 07:01:00 51°16.331 2°53.131 344.3 13 337 10.6
2011-04-20 07:01:07 51°16.354 2°53.116 344.3 13 337 10.7
2011-04-20 07:01:12 51°16.371 2°53.104 344.1 13 337 10.7
2011-04-20 07:01:16 51°16.384 2°53.096 343.9 13 337 10.6
2011-04-20 07:01:20 51°16.397 2°53.086 343.4 13.1 336 10.7
2011-04-20 07:01:27 51°16.42 2°53.07 342.8 13.1 335 10.7
2011-04-20 07:01:32 51°16.437 2°53.057 341.7 13.1 334 10.6
2011-04-20 07:01:36 51°16.449 2°53.047 341 13.1 334 10.6
2011-04-20 07:01:40 51°16.462 2°53.037 340.3 13.1 334 10.6
2011-04-20 07:01:46 51°16.482 2°53.021 340.1 13.1 334 10.7
2011-04-20 07:01:52 51°16.502 2°53.006 340.1 13.1 334 10.6
2011-04-20 07:01:56 51°16.515 2°52.997 341.2 13 336 10.6
2011-04-20 07:02:02 51°16.535 2°52.983 341.8 13 336 10.5
2011-04-20 07:02:06 51°16.548 2°52.974 342.2 13 337 10.5
2011-04-20 07:02:12 51°16.568 2°52.96 342.8 13 337 10.4
2011-04-20 07:02:16 51°16.581 2°52.951 343.3 13 337 10.6
2011-04-20 07:02:22 51°16.602 2°52.938 343.8 13 338 10.5
2011-04-20 07:02:26 51°16.615 2°52.929 344.1 13 338 10.2
2011-04-20 07:02:32 51°16.635 2°52.916 344.2 13 338 10.1
2011-04-20 07:02:36 51°16.648 2°52.907 343.8 13 336 10.2
2011-04-20 07:02:42 51°16.667 2°52.893 342.5 13 335 10
2011-04-20 07:02:46 51°16.68 2°52.882 341.4 13 333 10
2011-04-20 07:02:52 51°16.699 2°52.866 339.5 13 332 9.8
2011-04-20 07:02:56 51°16.712 2°52.855 338.6 13 332 9.5
2011-04-20 07:03:02 51°16.731 2°52.839 337.5 13 331 9.4
2011-04-20 07:03:06 51°16.743 2°52.828 337.1 12.8 331 9
2011-04-20 07:03:12 51°16.762 2°52.811 336.9 12.8 331 8.9
2011-04-20 07:03:16 51°16.775 2°52.8 336.7 12.8 331 8.5
2011-04-20 07:03:20 51°16.787 2°52.79 336.4 12.7 331 8.3
2011-04-20 07:03:27 51°16.808 2°52.77 336.3 12.6 331 8.3
2011-04-20 07:03:32 51°16.824 2°52.757 336.2 12.6 332 8.3
2011-04-20 07:03:36 51°16.836 2°52.747 337.2 12.6 333 8.2
2011-04-20 07:03:40 51°16.849 2°52.738 338.6 12.5 335 8
2011-04-20 07:03:47 51°16.871 2°52.722 340.3 12.5 337 8
2011-04-20 07:03:52 51°16.887 2°52.712 341.5 12.5 337 8
2011-04-20 07:03:56 51°16.9 2°52.703 342.1 12.5 337 8.2
2011-04-20 07:04:01 51°16.916 2°52.692 342.5 12.6 338 8.2
2011-04-20 07:04:06 51°16.932 2°52.682 342.9 12.6 338 8.4
2011-04-20 07:04:12 51°16.952 2°52.67 343.3 12.7 338 8.5
2011-04-20 07:04:16 51°16.965 2°52.661 343.4 12.7 338 8.6
2011-04-20 07:04:21 51°16.982 2°52.651 343.5 12.8 338 8.7
2011-04-20 07:04:26 51°16.998 2°52.64 343.1 12.8 337 8.6
2011-04-20 07:04:31 51°17.014 2°52.628 342.6 12.8 336 8.5
2011-04-20 07:04:36 51°17.03 2°52.617 341.9 12.8 336 8.5
2011-04-20 07:04:41 51°17.046 2°52.604 340.9 12.8 334 8.6
2011-04-20 07:04:47 51°17.065 2°52.588 339.6 12.8 332 8.4
2011-04-20 07:04:52 51°17.08 2°52.575 337.8 12.8 331 8.3
2011-04-20 07:04:56 51°17.093 2°52.563 335.8 12.7 330 8.4
2011-04-20 07:05:02 51°17.111 2°52.546 335.1 12.8 329 8.2
2011-04-20 07:05:07 51°17.126 2°52.531 334.2 12.8 328 8.4
2011-04-20 07:05:11 51°17.138 2°52.518 333.4 12.8 328 8.5
2011-04-20 07:05:16 51°17.153 2°52.504 333.2 12.9 329 8.7
2011-04-20 07:05:22 51°17.172 2°52.487 333.9 12.9 330 8.6
2011-04-20 07:05:27 51°17.187 2°52.473 334.9 12.9 331 8.5
2011-04-20 07:05:32 51°17.203 2°52.46 335.9 12.9 332 8.6
2011-04-20 07:05:36 51°17.216 2°52.45 337.8 12.8 335 8.9
2011-04-20 07:05:41 51°17.232 2°52.438 339.8 12.8 336 8.6
2011-04-20 07:05:47 51°17.252 2°52.424 340.8 12.9 336 8.8
2011-04-20 07:05:52 51°17.268 2°52.413 341.3 12.9 336 8.9
2011-04-20 07:05:56 51°17.281 2°52.404 341.8 12.9 336 9.1
2011-04-20 07:06:01 51°17.297 2°52.392 341.9 12.9 336 8.9
2011-04-20 07:06:07 51°17.317 2°52.379 341.9 12.9 336 9
2011-04-20 07:06:12 51°17.333 2°52.367 341.7 12.9 335 9
2011-04-20 07:06:16 51°17.346 2°52.357 341 12.9 334 9.1
2011-04-20 07:06:21 51°17.362 2°52.343 339.5 12.9 332 9.1
2011-04-20 07:06:27 51°17.381 2°52.327 338 13 331 9
2011-04-20 07:06:31 51°17.394 2°52.315 336.5 13 330 8.8
2011-04-20 07:06:36 51°17.409 2°52.301 335.5 13 329 9
2011-04-20 07:06:42 51°17.428 2°52.283 335.1 13 330 9.1
2011-04-20 07:06:46 51°17.44 2°52.272 335.1 13 330 9.4
2011-04-20 07:06:51 51°17.456 2°52.257 335.2 13.1 330 9.7
2011-04-20 07:06:56 51°17.472 2°52.243 335.8 13.1 331 9.9
2011-04-20 07:07:02 51°17.491 2°52.228 337 13.1 333 10
2011-04-20 07:07:06 51°17.504 2°52.218 338.6 13 334 9.8
2011-04-20 07:07:12 51°17.524 2°52.203 339.8 13 336 10.1
2011-04-20 07:07:16 51°17.537 2°52.194 340.9 13 336 10
2011-04-20 07:07:22 51°17.557 2°52.18 341.4 13 336 10
2011-04-20 07:07:26 51°17.57 2°52.171 341.8 12.9 336 10.1
2011-04-20 07:07:32 51°17.59 2°52.157 341.8 12.9 336 9.9
2011-04-20 07:07:36 51°17.603 2°52.148 341.8 12.9 336 10
2011-04-20 07:07:42 51°17.622 2°52.134 341.7 12.9 336 9.9
2011-04-20 07:07:46 51°17.635 2°52.125 341.6 13 336 9.9
2011-04-20 07:07:52 51°17.655 2°52.11 341.5 12.9 336 10
2011-04-20 07:07:56 51°17.668 2°52.101 341.4 12.9 336 9.9
2011-04-20 07:08:01 51°17.684 2°52.089 341.2 12.9 335 9.9
2011-04-20 07:08:07 51°17.703 2°52.074 340.6 12.9 334 9.8
2011-04-20 07:08:12 51°17.719 2°52.062 340.1 12.9 334 9.6
2011-04-20 07:08:16 51°17.732 2°52.051 339.2 12.9 333 9.6
2011-04-20 07:08:21 51°17.748 2°52.038 338.1 12.9 332 9.6
2011-04-20 07:08:26 51°17.764 2°52.024 337.3 12.9 332 9.4
2011-04-20 07:08:32 51°17.782 2°52.008 337.1 12.8 331 9.5
2011-04-20 07:08:36 51°17.795 2°51.997 337 12.8 332 8.9
2011-04-20 07:08:41 51°17.81 2°51.983 337 12.8 332 8.9
2011-04-20 07:08:46 51°17.826 2°51.971 337.2 12.7 332 8.9
2011-04-20 07:08:51 51°17.842 2°51.958 337.9 12.8 333 9
2011-04-20 07:08:56 51°17.858 2°51.945 338.6 12.8 334 8.9
2011-04-20 07:09:01 51°17.874 2°51.933 339.7 12.8 335 8.8
2011-04-20 07:09:07 51°17.893 2°51.919 340.5 12.8 336 9
2011-04-20 07:09:11 51°17.906 2°51.91 341.3 12.8 336 9.2
2011-04-20 07:09:16 51°17.923 2°51.899 342 12.8 337 9
2011-04-20 07:09:22 51°17.942 2°51.885 342.5 12.9 337 9.1
2011-04-20 07:09:26 51°17.955 2°51.876 342.6 12.8 337 9.2
2011-04-20 07:09:31 51°17.972 2°51.865 342.5 12.9 336 9.2
2011-04-20 07:09:36 51°17.988 2°51.853 342 12.9 335 9.1
2011-04-20 07:09:42 51°18.008 2°51.839 341.4 12.9 335 9.2
2011-04-20 07:09:46 51°18.021 2°51.829 340.8 13 334 9.3
2011-04-20 07:09:52 51°18.04 2°51.813 340.3 13 334 9.1
2011-04-20 07:09:56 51°18.053 2°51.803 339.7 13 333 9.4
2011-04-20 07:10:01 51°18.068 2°51.79 338.9 13 332 9.4
2011-04-20 07:10:07 51°18.087 2°51.773 337.8 13 331 9.5
2011-04-20 07:10:12 51°18.103 2°51.758 336.8 13 330 9.5
2011-04-20 07:10:16 51°18.116 2°51.747 336.2 13.1 331 9.5
2011-04-20 07:10:20 51°18.129 2°51.736 336.2 13.1 331 9.6
2011-04-20 07:10:27 51°18.151 2°51.717 336.6 13 331 9.8
2011-04-20 07:10:32 51°18.167 2°51.703 336.9 13 331 9.8
2011-04-20 07:10:36 51°18.18 2°51.692 337.5 13 332 9.8
2011-04-20 07:10:41 51°18.196 2°51.679 338.7 13.1 334 10.1
2011-04-20 07:10:47 51°18.215 2°51.664 339.8 13.1 335 10.2
2011-04-20 07:10:52 51°18.232 2°51.652 340.4 13 335 10.3
2011-04-20 07:10:56 51°18.245 2°51.642 340.7 13 335 10.2
2011-04-20 07:11:01 51°18.261 2°51.63 341 13 335 10.5
2011-04-20 07:11:06 51°18.278 2°51.619 341.2 13 335 10.5
2011-04-20 07:11:11 51°18.294 2°51.606 341.2 13 335 10.6
2011-04-20 07:11:16 51°18.311 2°51.594 341 13 334 10.8
2011-04-20 07:11:21 51°18.327 2°51.581 340.4 13.1 334 10.8
2011-04-20 07:11:26 51°18.343 2°51.568 340.1 13.1 333 10.9
2011-04-20 07:11:32 51°18.363 2°51.552 339.5 13.1 333 11
2011-04-20 07:11:36 51°18.375 2°51.542 339 13.1 332 10.9
2011-04-20 07:11:41 51°18.391 2°51.528 338.5 13.1 332 11.3
2011-04-20 07:11:47 51°18.41 2°51.511 338.2 13.1 332 11.4
2011-04-20 07:11:52 51°18.426 2°51.498 338.1 13.1 332 11.4
2011-04-20 07:11:56 51°18.439 2°51.487 338.3 13.1 332 11.6
2011-04-20 07:12:02 51°18.458 2°51.471 338.6 13 333 11.7
2011-04-20 07:12:07 51°18.474 2°51.458 339.4 13 334 11.8
2011-04-20 07:12:11 51°18.488 2°51.448 340.4 13 334 11.9
2011-04-20 07:12:16 51°18.504 2°51.436 340.7 13 334 12
2011-04-20 07:12:21 51°18.52 2°51.423 340.9 13 335 12.1
2011-04-20 07:12:26 51°18.537 2°51.411 340.9 13 334 12.1
2011-04-20 07:12:32 51°18.556 2°51.396 340.9 13.1 334 12.2
2011-04-20 07:12:36 51°18.569 2°51.386 341 13 334 12.5
2011-04-20 07:12:41 51°18.585 2°51.373 340.6 13 334 12.4
2011-04-20 07:12:46 51°18.602 2°51.36 340.6 13.1 334 12.6
2011-04-20 07:12:52 51°18.621 2°51.345 340.6 13.1 334 12.6
2011-04-20 07:12:56 51°18.634 2°51.335 340.6 13 334 12.7
2011-04-20 07:13:01 51°18.65 2°51.323 340.8 13 334 12.8
2011-04-20 07:13:06 51°18.667 2°51.31 340.9 13 334 12.9
2011-04-20 07:13:12 51°18.686 2°51.295 340.9 13 334 12.9
2011-04-20 07:13:16 51°18.699 2°51.285 340.9 13.1 334 13
2011-04-20 07:13:20 51°18.712 2°51.275 341 13.1 334 12.9
2011-04-20 07:13:26 51°18.732 2°51.259 341 13.1 334 12.8
2011-04-20 07:13:32 51°18.752 2°51.244 340.9 13.1 333 13.1
2011-04-20 07:13:36 51°18.764 2°51.233 340.6 13.1 333 13.1
2011-04-20 07:13:42 51°18.784 2°51.217 340.2 13.1 333 13.1
2011-04-20 07:13:46 51°18.797 2°51.206 339.8 13.1 332 13.2
2011-04-20 07:13:52 51°18.816 2°51.19 339.4 13.1 332 13.2
2011-04-20 07:13:56 51°18.829 2°51.179 339.2 13.2 332 13.3
2011-04-20 07:14:02 51°18.848 2°51.162 339 13.2 332 13.4
2011-04-20 07:14:06 51°18.861 2°51.151 339.1 13.2 332 13.4
2011-04-20 07:14:12 51°18.88 2°51.135 339.7 13.2 333 13.5
2011-04-20 07:14:16 51°18.893 2°51.124 340.5 13.1 333 13.4
2011-04-20 07:14:22 51°18.913 2°51.109 340.7 13.1 333 13.5
2011-04-20 07:14:27 51°18.929 2°51.095 340.9 13.1 333 13.5
2011-04-20 07:14:32 51°18.945 2°51.082 340.9 13.1 333 13.5
2011-04-20 07:14:36 51°18.958 2°51.071 340.7 13.1 333 13.5
2011-04-20 07:14:41 51°18.974 2°51.058 340.5 13.2 332 13.6
2011-04-20 07:14:47 51°18.994 2°51.041 340.2 13.2 332 13.7
2011-04-20 07:14:52 51°19.01 2°51.028 339.9 13.2 332 13.7
2011-04-20 07:14:56 51°19.023 2°51.017 339.8 13.2 332 13.7
2011-04-20 07:15:00 51°19.036 2°51.006 339.8 13.2 332 13.6
2011-04-20 07:15:06 51°19.055 2°50.99 340.1 13.2 333 13.7
2011-04-20 07:15:12 51°19.075 2°50.974 340.6 13.1 333 13.6
2011-04-20 07:15:16 51°19.088 2°50.963 340.7 13.2 333 13.7
2011-04-20 07:15:20 51°19.101 2°50.952 340.8 13.2 333 13.6
2011-04-20 07:15:26 51°19.12 2°50.936 340.7 13.2 333 13.6
2011-04-20 07:15:32 51°19.14 2°50.92 340.5 13.2 332 13.5
2011-04-20 07:15:36 51°19.153 2°50.909 340.2 13.2 332 13.6
2011-04-20 07:15:42 51°19.172 2°50.892 340.1 13.3 332 13.5
2011-04-20 07:15:46 51°19.185 2°50.881 340 13.2 332 13.5
2011-04-20 07:15:52 51°19.205 2°50.865 340 13.2 332 13.4
2011-04-20 07:15:56 51°19.218 2°50.854 340.1 13.2 332 13.2
2011-04-20 07:16:02 51°19.237 2°50.838 340.3 13.2 333 13.1
2011-04-20 07:16:06 51°19.251 2°50.827 340.5 13.2 333 13.1
2011-04-20 07:16:12 51°19.27 2°50.811 340.7 13.2 333 13.1
2011-04-20 07:16:16 51°19.283 2°50.801 340.8 13.2 333 13.1
2011-04-20 07:16:22 51°19.303 2°50.784 341 13.3 333 13.1
2011-04-20 07:16:26 51°19.316 2°50.774 341.2 13.2 334 13
2011-04-20 07:16:32 51°19.335 2°50.758 341.3 13.2 333 12.7
2011-04-20 07:16:36 51°19.349 2°50.748 341.2 13.2 333 12.6
2011-04-20 07:16:40 51°19.362 2°50.737 340.8 13.3 333 12.3
2011-04-20 07:16:47 51°19.385 2°50.718 340.4 13.3 332 12.1
2011-04-20 07:16:52 51°19.401 2°50.705 340.4 13.3 333 11.9
2011-04-20 07:16:56 51°19.414 2°50.695 341.2 13.2 334 11.8
2011-04-20 07:17:00 51°19.427 2°50.684 341.9 13.1 334 11.5
2011-04-20 07:17:07 51°19.45 2°50.667 342.5 13.1 335 11.3
2011-04-20 07:17:12 51°19.466 2°50.655 342.9 13.1 335 11.2
2011-04-20 07:17:16 51°19.479 2°50.645 343 13.1 335 11.2
2011-04-20 07:17:20 51°19.492 2°50.635 343 13.1 335 11.2
2011-04-20 07:17:26 51°19.512 2°50.619 343 13.1 334 10.9
2011-04-20 07:17:32 51°19.532 2°50.604 342.8 13.2 334 11.1
2011-04-20 07:17:36 51°19.545 2°50.594 342.6 13.2 334 10.9
2011-04-20 07:17:42 51°19.565 2°50.579 342.6 13.2 335 10.7
2011-04-20 07:17:46 51°19.578 2°50.569 342.9 13.1 335 10.7
2011-04-20 07:17:52 51°19.598 2°50.555 343.4 13.1 336 10.5
2011-04-20 07:17:56 51°19.611 2°50.545 343.7 13.1 335 10.5
2011-04-20 07:18:01 51°19.628 2°50.533 343.8 13.1 335 10.5
2011-04-20 07:18:06 51°19.644 2°50.521 343.4 13.1 335 10.7
2011-04-20 07:18:12 51°19.664 2°50.506 343.1 13.2 335 10.7
2011-04-20 07:18:16 51°19.677 2°50.496 342.7 13.3 334 10.9
2011-04-20 07:18:22 51°19.697 2°50.48 342.1 13.3 334 11.1
2011-04-20 07:18:26 51°19.71 2°50.469 341.5 13.4 333 11.2
2011-04-20 07:18:32 51°19.73 2°50.453 341.2 13.4 333 11.5
2011-04-20 07:18:36 51°19.743 2°50.442 340.8 13.3 333 11.5
2011-04-20 07:18:42 51°19.763 2°50.426 340.5 13.3 333 11.7
2011-04-20 07:18:46 51°19.776 2°50.416 340.7 13.3 334 12
2011-04-20 07:18:52 51°19.796 2°50.4 341.4 13.3 334 12.1
2011-04-20 07:18:56 51°19.809 2°50.391 341.9 13.3 335 12.2
2011-04-20 07:19:00 51°19.823 2°50.38 342.6 13.3 335 12.3
2011-04-20 07:19:07 51°19.846 2°50.363 342.8 13.3 335 12.4
2011-04-20 07:19:12 51°19.863 2°50.351 342.8 13.3 335 12.6
2011-04-20 07:19:16 51°19.876 2°50.341 342.8 13.3 335 12.8
2011-04-20 07:19:20 51°19.889 2°50.331 342.7 13.3 335 12.9
2011-04-20 07:19:27 51°19.912 2°50.313 342.6 13.3 334 13.1
2011-04-20 07:19:32 51°19.929 2°50.3 341.9 13.3 334 12.9
2011-04-20 07:19:36 51°19.942 2°50.29 341.8 13.3 334 12.8
2011-04-20 07:19:40 51°19.956 2°50.28 341.6 13.2 334 12.8
2011-04-20 07:19:46 51°19.975 2°50.265 341.5 13.2 334 12.9
2011-04-20 07:19:52 51°19.995 2°50.249 341.5 13.3 334 13
2011-04-20 07:19:56 51°20.009 2°50.239 341.8 13.3 335 13.3
2011-04-20 07:20:02 51°20.029 2°50.224 342.2 13.3 335 13.6
2011-04-20 07:20:06 51°20.042 2°50.214 342.4 13.3 335 13.9
2011-04-20 07:20:12 51°20.062 2°50.2 342.6 13.3 335 13.9
2011-04-20 07:20:16 51°20.075 2°50.19 342.7 13.3 335 14.1
2011-04-20 07:20:22 51°20.095 2°50.175 342.7 13.3 335 14.5
2011-04-20 07:20:26 51°20.109 2°50.165 342.5 13.3 334 14.9
2011-04-20 07:20:32 51°20.129 2°50.149 342 13.3 334 15.1
2011-04-20 07:20:36 51°20.142 2°50.139 341.9 13.3 334 15.3
2011-04-20 07:20:42 51°20.162 2°50.124 341.9 13.3 334 15.5
2011-04-20 07:20:46 51°20.175 2°50.113 341.7 13.3 334 15.8
2011-04-20 07:20:52 51°20.195 2°50.098 341.4 13.3 334 15.9
2011-04-20 07:20:56 51°20.208 2°50.087 341.4 13.3 334 16.3
2011-04-20 07:21:02 51°20.228 2°50.072 341.5 13.2 334 16.6
2011-04-20 07:21:06 51°20.241 2°50.062 341.8 13.2 334 16.8
2011-04-20 07:21:12 51°20.261 2°50.046 341.9 13.2 334 17
2011-04-20 07:21:16 51°20.274 2°50.036 341.9 13.2 335 17.3
2011-04-20 07:21:20 51°20.288 2°50.027 342.4 13.2 336 17.4
2011-04-20 07:21:27 51°20.311 2°50.011 343 13.1 337 17.8
2011-04-20 07:21:32 51°20.328 2°50 343.8 13.1 338 18
2011-04-20 07:21:36 51°20.341 2°49.991 344.1 13.1 338 18.2
2011-04-20 07:21:40 51°20.355 2°49.982 343.7 13.1 336 18.5
2011-04-20 07:21:47 51°20.378 2°49.965 342.9 13.1 336 18.7
2011-04-20 07:21:52 51°20.394 2°49.953 342.6 13.2 335 18.9
2011-04-20 07:21:56 51°20.408 2°49.943 341.9 13.2 335 19.2
2011-04-20 07:22:00 51°20.421 2°49.933 341.6 13.2 334 19.4
2011-04-20 07:22:06 51°20.44 2°49.917 341.1 13.2 334 19.6
2011-04-20 07:22:12 51°20.46 2°49.902 340.8 13.3 334 20
2011-04-20 07:22:16 51°20.474 2°49.892 341.1 13.3 335 20.2
2011-04-20 07:22:22 51°20.493 2°49.876 341.3 13.3 334 20.4
2011-04-20 07:22:26 51°20.507 2°49.866 341.5 13.3 335 20.6
2011-04-20 07:22:32 51°20.527 2°49.851 341.8 13.3 335 20.8
2011-04-20 07:22:36 51°20.54 2°49.841 342.1 13.3 335 20.9
2011-04-20 07:22:42 51°20.56 2°49.827 342.5 13.3 335 21.2
2011-04-20 07:22:46 51°20.574 2°49.816 342.6 13.3 335 21.2
2011-04-20 07:22:52 51°20.594 2°49.802 342.6 13.3 335 21.3
2011-04-20 07:22:56 51°20.607 2°49.791 342.2 13.3 334 21.3
2011-04-20 07:23:02 51°20.627 2°49.776 341.9 13.3 335 21.3
2011-04-20 07:23:06 51°20.64 2°49.766 341.9 13.4 335 21.6
2011-04-20 07:23:12 51°20.661 2°49.751 342 13.3 335 21.6
2011-04-20 07:23:16 51°20.674 2°49.741 342.2 13.3 335 21.8
2011-04-20 07:23:20 51°20.688 2°49.731 342.4 13.3 336 21.8
2011-04-20 07:23:27 51°20.711 2°49.714 342.7 13.3 335 21.8
2011-04-20 07:23:32 51°20.727 2°49.702 343 13.3 336 21.8
2011-04-20 07:23:36 51°20.741 2°49.692 342.9 13.3 335 21.8
2011-04-20 07:23:40 51°20.754 2°49.682 342.7 13.2 335 21.7
2011-04-20 07:23:47 51°20.777 2°49.664 342.3 13.3 334 21.9
2011-04-20 07:23:52 51°20.794 2°49.651 341.9 13.3 334 21.9
2011-04-20 07:23:56 51°20.807 2°49.641 341.6 13.3 334 21.7
2011-04-20 07:24:00 51°20.82 2°49.63 341.3 13.2 334 21.8
2011-04-20 07:24:06 51°20.84 2°49.615 341.2 13.3 334 21.7
2011-04-20 07:24:12 51°20.86 2°49.599 341.4 13.3 334 21.9
2011-04-20 07:24:16 51°20.873 2°49.589 341.7 13.2 335 22
2011-04-20 07:24:20 51°20.887 2°49.579 342.2 13.2 335 21.8
2011-04-20 07:24:26 51°20.907 2°49.564 342.7 13.2 335 21.9
2011-04-20 07:24:32 51°20.927 2°49.549 342.7 13.2 335 21.9
2011-04-20 07:24:36 51°20.94 2°49.539 342.7 13.3 334 21.7
2011-04-20 07:24:42 51°20.96 2°49.523 342.2 13.3 334 21.6
2011-04-20 07:24:46 51°20.973 2°49.513 341.7 13.3 333 21.6
2011-04-20 07:24:52 51°20.993 2°49.497 341.5 13.3 333 21.5
2011-04-20 07:24:56 51°21.006 2°49.487 341.2 13.3 333 21.6
2011-04-20 07:25:02 51°21.026 2°49.471 341.2 13.3 334 21.5
2011-04-20 07:25:06 51°21.039 2°49.461 341.8 13.3 334 21.4
2011-04-20 07:25:12 51°21.059 2°49.445 342 13.2 334 21.4
2011-04-20 07:25:16 51°21.072 2°49.435 342.2 13.2 334 21.4
2011-04-20 07:25:22 51°21.092 2°49.419 342.2 13.3 334 21.3
2011-04-20 07:25:26 51°21.105 2°49.409 342 13.3 333 21.2
2011-04-20 07:25:32 51°21.125 2°49.393 341.8 13.3 333 21.3
2011-04-20 07:25:36 51°21.138 2°49.382 341.5 13.2 333 21
2011-04-20 07:25:40 51°21.151 2°49.371 341.4 13.3 334 21
2011-04-20 07:25:47 51°21.174 2°49.353 341.7 13.3 334 20.8
2011-04-20 07:25:52 51°21.191 2°49.341 342.1 13.3 334 21.1
2011-04-20 07:25:56 51°21.204 2°49.331 342.7 13.3 335 20.7
2011-04-20 07:26:00 51°21.217 2°49.321 343 13.2 335 20.9
2011-04-20 07:26:07 51°21.24 2°49.303 343.2 13.3 334 21
2011-04-20 07:26:12 51°21.257 2°49.291 342.7 13.3 334 20.8
2011-04-20 07:26:16 51°21.27 2°49.28 342.6 13.3 334 20.8
2011-04-20 07:26:20 51°21.284 2°49.27 342.6 13.3 334 20.8
2011-04-20 07:26:26 51°21.304 2°49.254 342.5 13.3 334 20.9
2011-04-20 07:26:32 51°21.324 2°49.239 342.3 13.3 334 20.7
2011-04-20 07:26:36 51°21.337 2°49.229 342.1 13.3 334 20.6
2011-04-20 07:26:42 51°21.357 2°49.213 342.1 13.3 334 20.3
2011-04-20 07:26:46 51°21.37 2°49.203 342.5 13.3 335 20.3
2011-04-20 07:26:52 51°21.39 2°49.188 342.8 13.3 335 20.4
2011-04-20 07:26:56 51°21.404 2°49.178 343 13.3 335 20.4
2011-04-20 07:27:02 51°21.424 2°49.163 343 13.3 335 20.3
2011-04-20 07:27:06 51°21.437 2°49.153 343 13.3 334 20.4
2011-04-20 07:27:12 51°21.457 2°49.137 342.8 13.3 334 20.5
2011-04-20 07:27:16 51°21.471 2°49.127 342.7 13.4 334 20.7
2011-04-20 07:27:22 51°21.491 2°49.111 342.2 13.4 334 20.4
2011-04-20 07:27:26 51°21.504 2°49.101 341.9 13.4 334 20.7
2011-04-20 07:27:32 51°21.524 2°49.085 341.9 13.4 334 20.5
2011-04-20 07:27:36 51°21.537 2°49.075 342.2 13.4 334 20.8
2011-04-20 07:27:42 51°21.557 2°49.059 342.6 13.4 335 21.1
2011-04-20 07:27:46 51°21.571 2°49.049 343 13.4 335 21
2011-04-20 07:27:52 51°21.591 2°49.034 343 13.4 335 21
2011-04-20 07:27:56 51°21.604 2°49.024 342.8 13.4 334 21
2011-04-20 07:28:00 51°21.618 2°49.014 342.7 13.4 335 21.7
2011-04-20 07:28:07 51°21.641 2°48.996 342.7 13.4 335 21.7
2011-04-20 07:28:12 51°21.658 2°48.983 342.6 13.5 334 21.9
2011-04-20 07:28:16 51°21.672 2°48.973 342.5 13.5 334 21.8
2011-04-20 07:28:20 51°21.685 2°48.962 342.3 13.5 334 22.1
2011-04-20 07:28:26 51°21.705 2°48.947 342.3 13.5 334 22.1
2011-04-20 07:28:32 51°21.725 2°48.931 342.1 13.5 334 21.8
2011-04-20 07:28:36 51°21.739 2°48.921 342.1 13.5 334 22.1
2011-04-20 07:28:40 51°21.752 2°48.91 341.9 13.5 334 22.1
2011-04-20 07:28:46 51°21.773 2°48.894 341.8 13.5 334 22.2
2011-04-20 07:28:52 51°21.793 2°48.879 341.8 13.5 334 22.3
2011-04-20 07:28:56 51°21.806 2°48.869 341.8 13.5 334 22.3
2011-04-20 07:29:02 51°21.827 2°48.853 341.9 13.5 335 22.2
2011-04-20 07:29:06 51°21.84 2°48.843 342.3 13.5 335 22.4
2011-04-20 07:29:12 51°21.861 2°48.829 342.8 13.4 336 22.2
2011-04-20 07:29:16 51°21.874 2°48.819 342.9 13.4 335 22
2011-04-20 07:29:22 51°21.894 2°48.804 343 13.4 335 22.2
2011-04-20 07:29:26 51°21.908 2°48.793 342.7 13.5 335 22.1
2011-04-20 07:29:32 51°21.928 2°48.778 342.4 13.5 334 22.2
2011-04-20 07:29:36 51°21.942 2°48.768 341.9 13.5 334 22.4
2011-04-20 07:29:42 51°21.962 2°48.752 341.7 13.5 334 22
2011-04-20 07:29:46 51°21.975 2°48.741 341.3 13.5 334 22.3
2011-04-20 07:29:52 51°21.996 2°48.725 341.2 13.5 334 22
2011-04-20 07:29:56 51°22.009 2°48.715 341.5 13.5 335 22.4
2011-04-20 07:30:02 51°22.03 2°48.701 342.3 13.5 336 22
2011-04-20 07:30:07 51°22.047 2°48.688 342.9 13.5 336 22.3
2011-04-20 07:30:12 51°22.064 2°48.676 343.3 13.4 336 22.2
2011-04-20 07:30:16 51°22.077 2°48.666 343.4 13.4 336 22.2
2011-04-20 07:30:20 51°22.091 2°48.656 342.8 13.5 335 22.5
2011-04-20 07:30:27 51°22.115 2°48.638 342.3 13.5 335 22.3
2011-04-20 07:30:32 51°22.132 2°48.626 341.9 13.5 335 22.5
2011-04-20 07:30:36 51°22.145 2°48.615 341.9 13.5 335 22.3
2011-04-20 07:30:40 51°22.159 2°48.605 341.9 13.5 335 22.6
2011-04-20 07:30:46 51°22.179 2°48.59 342 13.5 335 22.6
2011-04-20 07:30:52 51°22.2 2°48.576 342.5 13.5 336 22.3
2011-04-20 07:30:56 51°22.213 2°48.566 342.7 13.5 336 22.2
2011-04-20 07:31:00 51°22.227 2°48.556 342.9 13.5 336 21.7
2011-04-20 07:31:06 51°22.247 2°48.541 342.9 13.5 336 21.5
2011-04-20 07:31:12 51°22.268 2°48.526 342.7 13.5 335 21.2
2011-04-20 07:31:16 51°22.281 2°48.516 342.4 13.5 335 21.2
2011-04-20 07:31:22 51°22.302 2°48.501 342 13.5 335 20.5
2011-04-20 07:31:26 51°22.315 2°48.491 341.6 13.5 334 19.7
2011-04-20 07:31:32 51°22.335 2°48.475 341.5 13.5 335 19
2011-04-20 07:31:36 51°22.349 2°48.465 341.6 13.5 335 18.7
2011-04-20 07:31:42 51°22.369 2°48.45 341.8 13.4 335 19
2011-04-20 07:31:46 51°22.383 2°48.44 342 13.4 335 18.4
2011-04-20 07:31:52 51°22.403 2°48.425 342.3 13.4 336 17.7
2011-04-20 07:31:56 51°22.417 2°48.415 342.6 13.4 335 16.8
2011-04-20 07:32:02 51°22.437 2°48.4 342.8 13.4 336 16.6
2011-04-20 07:32:06 51°22.451 2°48.39 342.9 13.4 336 16
2011-04-20 07:32:12 51°22.471 2°48.376 342.9 13.4 335 15.2
2011-04-20 07:32:16 51°22.484 2°48.366 342.7 13.4 335 12.5
2011-04-20 07:32:22 51°22.504 2°48.35 342 13.3 334 14.6
2011-04-20 07:32:27 51°22.521 2°48.338 341.4 13.3 334 15.6
2011-04-20 07:32:32 51°22.537 2°48.325 341.4 13.3 335 15.5
2011-04-20 07:32:36 51°22.551 2°48.315 341.7 13.3 335 15.8
2011-04-20 07:32:40 51°22.564 2°48.305 342 13.4 335 15.5
2011-04-20 07:32:47 51°22.588 2°48.288 342.3 13.3 336 15.7
2011-04-20 07:32:52 51°22.605 2°48.276 342.7 13.3 335 14.9
2011-04-20 07:32:56 51°22.618 2°48.266 342.6 13.3 335 13.1
2011-04-20 07:33:00 51°22.632 2°48.257 342.3 13.3 335 15.8
2011-04-20 07:33:06 51°22.652 2°48.242 342.3 13.3 336 16.8
2011-04-20 07:33:12 51°22.672 2°48.228 342.5 13.3 337 16.8
2011-04-20 07:33:16 51°22.686 2°48.218 343.4 13.3 337 17.1
2011-04-20 07:33:22 51°22.706 2°48.204 343.4 13.3 337 16.1
2011-04-20 07:33:26 51°22.719 2°48.195 343.1 13.2 336 15.1
2011-04-20 07:33:32 51°22.739 2°48.18 342.5 13.2 335 15.1
2011-04-20 07:33:36 51°22.752 2°48.17 341.9 13.2 335 16.4
2011-04-20 07:33:42 51°22.772 2°48.155 341.8 13.2 335 17.5
2011-04-20 07:33:46 51°22.785 2°48.145 342.1 13.2 336 17.7
2011-04-20 07:33:52 51°22.806 2°48.132 343 13.1 337 18
2011-04-20 07:33:56 51°22.819 2°48.122 343.3 13.2 336 18.1
2011-04-20 07:34:02 51°22.839 2°48.108 343.4 13.1 337 18.5
2011-04-20 07:34:06 51°22.852 2°48.099 343.4 13.2 336 18.6
2011-04-20 07:34:12 51°22.872 2°48.084 343.1 13.2 336 19
2011-04-20 07:34:16 51°22.886 2°48.075 342.8 13.2 336 19
2011-04-20 07:34:22 51°22.906 2°48.06 342.5 13.2 335 18.8
2011-04-20 07:34:26 51°22.919 2°48.05 342.2 13.2 335 18.9
2011-04-20 07:34:32 51°22.939 2°48.035 341.8 13.2 335 19.1
2011-04-20 07:34:36 51°22.952 2°48.025 341.8 13.2 335 19.1
2011-04-20 07:34:40 51°22.965 2°48.015 342.1 13.1 336 19.3
2011-04-20 07:34:47 51°22.989 2°47.999 342.6 13.1 335 19.4
2011-04-20 07:34:52 51°23.005 2°47.986 342.5 13.1 335 19.2
2011-04-20 07:34:56 51°23.018 2°47.977 342.5 13.1 336 19.4
2011-04-20 07:35:00 51°23.031 2°47.967 342 13.1 335 19
2011-04-20 07:35:06 51°23.051 2°47.952 341.9 13.1 334 18.6
2011-04-20 07:35:12 51°23.071 2°47.937 341.7 13.1 334 17.2
2011-04-20 07:35:16 51°23.084 2°47.926 341.4 13.1 334 17
2011-04-20 07:35:20 51°23.097 2°47.916 341.4 13.1 334 17.2
2011-04-20 07:35:26 51°23.117 2°47.901 341.4 13.1 335 17.6
2011-04-20 07:35:32 51°23.137 2°47.886 341.7 13.1 335 18
2011-04-20 07:35:36 51°23.15 2°47.877 342.3 13.1 335 17.2
2011-04-20 07:35:42 51°23.17 2°47.862 342.4 13.1 335 16.8
2011-04-20 07:35:46 51°23.183 2°47.852 342.4 13.1 334 16.3
2011-04-20 07:35:52 51°23.203 2°47.837 342.2 13.2 334 15.3
2011-04-20 07:35:56 51°23.216 2°47.826 342 13.2 334 15.4
2011-04-20 07:36:02 51°23.236 2°47.811 342.1 13.2 334 17
2011-04-20 07:36:06 51°23.249 2°47.801 341.9 13.2 335 17.3
2011-04-20 07:36:12 51°23.269 2°47.786 342 13.2 335 17
2011-04-20 07:36:16 51°23.282 2°47.776 342.2 13.2 335 18.1
2011-04-20 07:36:22 51°23.302 2°47.762 342.4 13.2 336 18.5
2011-04-20 07:36:26 51°23.315 2°47.752 342.6 13.1 336 18.5
2011-04-20 07:36:32 51°23.335 2°47.738 342.8 13.2 335 19.4
2011-04-20 07:36:36 51°23.349 2°47.728 342.6 13.2 335 19.3
2011-04-20 07:36:40 51°23.362 2°47.719 342.4 13.2 335 19.8
2011-04-20 07:36:47 51°23.385 2°47.702 342 13.2 335 20.1
2011-04-20 07:36:52 51°23.402 2°47.689 341.9 13.2 335 19.8
2011-04-20 07:36:56 51°23.415 2°47.679 341.7 13.2 335 19.6
2011-04-20 07:37:00 51°23.428 2°47.669 341.8 13.1 335 18.4
2011-04-20 07:37:07 51°23.451 2°47.652 341.8 13.1 335 18.3
2011-04-20 07:37:12 51°23.468 2°47.64 342 13.1 335 18.7
2011-04-20 07:37:16 51°23.481 2°47.629 341.9 13.2 334 18.8
2011-04-20 07:37:20 51°23.494 2°47.619 341.8 13.2 334 18.9
2011-04-20 07:37:26 51°23.514 2°47.604 341.8 13.2 334 19.8
2011-04-20 07:37:32 51°23.533 2°47.588 341.9 13.2 335 20.1
2011-04-20 07:37:36 51°23.547 2°47.579 342.2 13.2 335 20.2
2011-04-20 07:37:40 51°23.56 2°47.569 342.6 13.2 335 20.9
2011-04-20 07:37:46 51°23.58 2°47.554 342.6 13.2 334 21.1
2011-04-20 07:37:52 51°23.599 2°47.538 342 13.2 334 21.2
2011-04-20 07:37:56 51°23.613 2°47.528 341.9 13.2 334 21.4
2011-04-20 07:38:02 51°23.632 2°47.513 341.6 13.2 334 21.9
2011-04-20 07:38:06 51°23.645 2°47.502 341.7 13.2 334 21.9
2011-04-20 07:38:12 51°23.665 2°47.487 341.8 13.2 334 22.3
2011-04-20 07:38:16 51°23.678 2°47.477 342 13.1 335 22.1
2011-04-20 07:38:22 51°23.698 2°47.462 342.4 13.1 335 22.3
2011-04-20 07:38:26 51°23.711 2°47.452 342.7 13.2 335 22.6
2011-04-20 07:38:32 51°23.731 2°47.437 342.8 13.1 335 22.6
2011-04-20 07:38:36 51°23.744 2°47.427 342.9 13.2 335 22.7
2011-04-20 07:38:42 51°23.764 2°47.413 342.7 13.2 335 22.9
2011-04-20 07:38:46 51°23.777 2°47.403 342.7 13.2 334 22.7
2011-04-20 07:38:52 51°23.797 2°47.387 342.2 13.2 334 21.5
2011-04-20 07:38:56 51°23.81 2°47.377 342.1 13.2 334 19.3
2011-04-20 07:39:00 51°23.823 2°47.366 342.1 13.2 333 17
2011-04-20 07:39:07 51°23.846 2°47.347 341.8 13.3 332 18.4
2011-04-20 07:39:12 51°23.862 2°47.334 341.5 13.2 333 19.2
2011-04-20 07:39:16 51°23.876 2°47.324 341.5 13.2 333 20.2
2011-04-20 07:39:20 51°23.889 2°47.313 341.8 13.2 334 21.8
2011-04-20 07:39:27 51°23.912 2°47.295 342.1 13.2 334 23.1
2011-04-20 07:39:32 51°23.928 2°47.282 342.7 13.2 334 23.8
2011-04-20 07:39:36 51°23.941 2°47.272 342.7 13.2 335 24
2011-04-20 07:39:40 51°23.955 2°47.262 342.8 13.2 335 24.4
2011-04-20 07:39:46 51°23.974 2°47.247 342.8 13.2 334 24.8
2011-04-20 07:39:52 51°23.994 2°47.231 342.6 13.2 334 25.3
2011-04-20 07:39:56 51°24.007 2°47.221 342.2 13.2 334 25.3
2011-04-20 07:40:02 51°24.027 2°47.206 342.2 13.2 334 25.1
2011-04-20 07:40:06 51°24.04 2°47.195 341.9 13.2 334 25.1
2011-04-20 07:40:12 51°24.06 2°47.18 342.1 13.2 334 25.3
2011-04-20 07:40:16 51°24.073 2°47.17 342.2 13.2 334 25.8
2011-04-20 07:40:21 51°24.09 2°47.157 342.3 13.2 334 25.7
2011-04-20 07:40:26 51°24.106 2°47.144 342.3 13.2 334 26.1
2011-04-20 07:40:32 51°24.126 2°47.129 342.2 13.2 334 26.3
2011-04-20 07:40:36 51°24.139 2°47.118 341.9 13.2 334 25.8
2011-04-20 07:40:42 51°24.158 2°47.102 341.8 13.2 333 26
2011-04-20 07:40:46 51°24.171 2°47.092 341.8 13.2 333 25
2011-04-20 07:40:52 51°24.191 2°47.076 341.8 13.2 334 25.8
2011-04-20 07:40:56 51°24.204 2°47.066 342.1 13.2 334 26.2
2011-04-20 07:41:00 51°24.217 2°47.056 342.5 13.2 334 26.9
2011-04-20 07:41:06 51°24.237 2°47.041 342.7 13.2 335 25.5
2011-04-20 07:41:12 51°24.257 2°47.026 343 13.1 335 26
2011-04-20 07:41:16 51°24.27 2°47.016 343.2 13.1 335 27.1
2011-04-20 07:41:20 51°24.283 2°47.006 343.2 13.1 335 27.2
2011-04-20 07:41:27 51°24.306 2°46.989 343 13.1 334 28.1
2011-04-20 07:41:32 51°24.323 2°46.976 342.5 13.1 335 28.5
2011-04-20 07:41:36 51°24.336 2°46.966 342.3 13.2 334 28.9
2011-04-20 07:41:40 51°24.349 2°46.956 342.2 13.2 334 29.4
2011-04-20 07:41:46 51°24.369 2°46.941 342.1 13.2 334 29.4
2011-04-20 07:41:52 51°24.389 2°46.925 342.1 13.2 334 29.1
2011-04-20 07:41:56 51°24.402 2°46.915 342 13.2 334 28.5
2011-04-20 07:42:00 51°24.415 2°46.905 341.9 13.2 334 29.1
2011-04-20 07:42:06 51°24.435 2°46.889 342.1 13.2 334 29.5
2011-04-20 07:42:12 51°24.455 2°46.874 342.2 13.2 335 30.1
2011-04-20 07:42:16 51°24.468 2°46.864 342.6 13.2 334 30.1
2011-04-20 07:42:20 51°24.481 2°46.854 342.6 13.2 335 29.6
2011-04-20 07:42:26 51°24.501 2°46.839 342.7 13.2 334 29.1
2011-04-20 07:42:32 51°24.521 2°46.824 342.4 13.2 335 28.5
2011-04-20 07:42:36 51°24.534 2°46.813 342 13.2 333 28.3
2011-04-20 07:42:42 51°24.553 2°46.798 341.7 13.1 334 28.3
2011-04-20 07:42:46 51°24.567 2°46.787 341.7 13.2 333 29
2011-04-20 07:42:52 51°24.586 2°46.772 341.4 13.1 334 29.1
2011-04-20 07:42:56 51°24.599 2°46.762 341.7 13.1 334 28.7
2011-04-20 07:43:02 51°24.619 2°46.747 342.2 13.1 334 28.4
2011-04-20 07:43:06 51°24.632 2°46.737 342.4 13.1 334 28.2
2011-04-20 07:43:12 51°24.652 2°46.722 342.4 13.1 335 28.2
2011-04-20 07:43:16 51°24.665 2°46.712 342.5 13.1 334 27.9
2011-04-20 07:43:20 51°24.678 2°46.702 342.4 13.1 334 27.9
2011-04-20 07:43:26 51°24.697 2°46.686 342.1 13.1 334 28.2
2011-04-20 07:43:32 51°24.717 2°46.671 341.8 13.2 333 28.5
2011-04-20 07:43:36 51°24.73 2°46.661 341.7 13.1 334 28
2011-04-20 07:43:40 51°24.743 2°46.65 341.8 13.2 334 26.1
2011-04-20 07:43:46 51°24.763 2°46.635 342.2 13.2 334 25.9
2011-04-20 07:43:52 51°24.783 2°46.62 342 13.2 334 25.5
2011-04-20 07:43:56 51°24.796 2°46.61 341.9 13.2 334 24.7
2011-04-20 07:44:00 51°24.809 2°46.599 341.9 13.2 334 24.4
2011-04-20 07:44:07 51°24.832 2°46.581 341.9 13.2 334 24.4
2011-04-20 07:44:12 51°24.848 2°46.569 342 13.1 334 24.3
2011-04-20 07:44:16 51°24.861 2°46.559 342.3 13.2 334 23.8
2011-04-20 07:44:20 51°24.875 2°46.549 342.7 13.2 335 23.4
2011-04-20 07:44:26 51°24.894 2°46.534 342.8 13.2 334 23.3
2011-04-20 07:44:32 51°24.914 2°46.518 342.7 13.2 334 23.4
2011-04-20 07:44:36 51°24.927 2°46.508 342.7 13.2 334 23.8
2011-04-20 07:44:42 51°24.947 2°46.493 342.3 13.2 334 24
2011-04-20 07:44:46 51°24.96 2°46.483 342.1 13.2 334 23.9
2011-04-20 07:44:52 51°24.98 2°46.467 342.1 13.2 334 23.8
2011-04-20 07:44:56 51°24.993 2°46.457 342.1 13.2 335 23.6
2011-04-20 07:45:02 51°25.013 2°46.442 342.4 13.2 334 23.7
2011-04-20 07:45:06 51°25.026 2°46.432 342.4 13.2 335 23.7
2011-04-20 07:45:12 51°25.046 2°46.417 342.5 13.2 335 24
2011-04-20 07:45:16 51°25.059 2°46.407 342.6 13.3 334 23.5
2011-04-20 07:45:22 51°25.079 2°46.391 342.3 13.3 334 23.2
2011-04-20 07:45:26 51°25.092 2°46.381 342 13.2 334 23.5
2011-04-20 07:45:32 51°25.112 2°46.365 342 13.3 334 23.9
2011-04-20 07:45:36 51°25.125 2°46.355 341.6 13.3 333 23.7
2011-04-20 07:45:42 51°25.145 2°46.339 341.5 13.3 334 23.8
2011-04-20 07:45:46 51°25.158 2°46.329 341.5 13.2 334 23.8
2011-04-20 07:45:52 51°25.178 2°46.314 341.9 13.2 334 24.2
2011-04-20 07:45:56 51°25.191 2°46.304 342.2 13.2 335 24.2
2011-04-20 07:46:00 51°25.205 2°46.294 342.7 13.2 335 24.5
2011-04-20 07:46:07 51°25.228 2°46.277 342.9 13.2 335 23.9
2011-04-20 07:46:12 51°25.245 2°46.264 343 13.2 335 23.3
2011-04-20 07:46:16 51°25.258 2°46.254 342.7 13.3 335 23.3
2011-04-20 07:46:20 51°25.271 2°46.244 342.1 13.3 334 22.6
2011-04-20 07:46:26 51°25.291 2°46.228 341.8 13.3 334 23.8
2011-04-20 07:46:32 51°25.311 2°46.213 341.5 13.3 334 24.3
2011-04-20 07:46:36 51°25.324 2°46.203 341.6 13.3 334 24.3
2011-04-20 07:46:40 51°25.337 2°46.192 341.9 13.3 334 23.9
2011-04-20 07:46:46 51°25.357 2°46.177 342 13.3 335 23.7
2011-04-20 07:46:52 51°25.377 2°46.162 342.1 13.3 334 23.9
2011-04-20 07:46:56 51°25.39 2°46.151 341.9 13.3 334 22.7
2011-04-20 07:47:02 51°25.41 2°46.136 341.9 13.3 334 22
2011-04-20 07:47:06 51°25.424 2°46.125 341.9 13.3 334 23.5
2011-04-20 07:47:12 51°25.443 2°46.11 341.9 13.3 334 23.7
2011-04-20 07:47:16 51°25.457 2°46.1 341.9 13.3 334 24
2011-04-20 07:47:22 51°25.477 2°46.085 342.1 13.3 334 23.9
2011-04-20 07:47:26 51°25.49 2°46.075 342.1 13.3 335 23.7
2011-04-20 07:47:32 51°25.51 2°46.059 342.3 13.3 335 22.4
2011-04-20 07:47:36 51°25.524 2°46.05 342.4 13.3 335 21.3
2011-04-20 07:47:42 51°25.544 2°46.035 342.5 13.3 335 22.6
2011-04-20 07:47:46 51°25.557 2°46.025 342.4 13.3 335 23.3
2011-04-20 07:47:52 51°25.577 2°46.01 342.3 13.3 335 23.4
2011-04-20 07:47:56 51°25.59 2°45.999 342.4 13.3 335 23.2
2011-04-20 07:48:02 51°25.61 2°45.984 342.5 13.2 335 23.1
2011-04-20 07:48:07 51°25.627 2°45.972 342.7 13.2 335 22.8
2011-04-20 07:48:12 51°25.644 2°45.96 342.8 13.2 336 23.2
2011-04-20 07:48:16 51°25.657 2°45.95 343 13.2 335 22.6
2011-04-20 07:48:21 51°25.673 2°45.938 342.7 13.2 335 21.9
2011-04-20 07:48:26 51°25.69 2°45.925 342.7 13.2 334 22.1
2011-04-20 07:48:32 51°25.71 2°45.909 341.9 13.2 334 23
2011-04-20 07:48:36 51°25.723 2°45.899 341.9 13.2 334 23.3
2011-04-20 07:48:41 51°25.739 2°45.887 342.5 13.2 335 23.5
2011-04-20 07:48:46 51°25.756 2°45.874 342.9 13.2 335 23.6
2011-04-20 07:48:52 51°25.776 2°45.86 343.1 13.1 335 24
2011-04-20 07:48:56 51°25.789 2°45.85 343.1 13.2 335 24.6
2011-04-20 07:49:01 51°25.805 2°45.837 342.9 13.1 335 24.5
2011-04-20 07:49:06 51°25.822 2°45.825 342.7 13.1 335 24.3
2011-04-20 07:49:12 51°25.842 2°45.81 342.7 13.2 335 24.5
2011-04-20 07:49:16 51°25.855 2°45.8 342.7 13.2 335 23.5
2011-04-20 07:49:21 51°25.871 2°45.787 342.4 13.1 334 23.7
2011-04-20 07:49:26 51°25.888 2°45.775 342.5 13.1 334 24.3
2011-04-20 07:49:32 51°25.907 2°45.759 342.3 13.1 335 24.6
2011-04-20 07:49:36 51°25.921 2°45.75 342.7 13.1 335 24.7
2011-04-20 07:49:41 51°25.937 2°45.737 342.7 13.1 335 24.8
2011-04-20 07:49:47 51°25.957 2°45.723 342.9 13.2 335 24.9
2011-04-20 07:49:52 51°25.974 2°45.71 343.1 13.2 335 24.1
2011-04-20 07:49:56 51°25.987 2°45.701 343.2 13.1 336 23
2011-04-20 07:50:01 51°26.004 2°45.689 343.2 13.2 335 24.5
2011-04-20 07:50:07 51°26.024 2°45.674 343.2 13.1 335 24.7
2011-04-20 07:50:12 51°26.04 2°45.662 343 13.1 335 25.1
2011-04-20 07:50:16 51°26.053 2°45.652 343 13.2 335 25.4
2011-04-20 07:50:21 51°26.07 2°45.64 342.7 13.2 335 25.7
2011-04-20 07:50:27 51°26.09 2°45.624 342.3 13.2 334 25.2
2011-04-20 07:50:32 51°26.106 2°45.611 341.9 13.3 334 23.9
2011-04-20 07:50:36 51°26.119 2°45.601 341.2 13.2 333 25.2
2011-04-20 07:50:41 51°26.136 2°45.588 341.4 13.2 334 25.4
2011-04-20 07:50:47 51°26.155 2°45.573 341.5 13.2 335 24
2011-04-20 07:50:52 51°26.172 2°45.561 342.3 13.2 335 24.4
2011-04-20 07:50:56 51°26.185 2°45.551 342.5 13.1 335 25.3
2011-04-20 07:51:02 51°26.205 2°45.537 342.7 13.1 336 25.9
2011-04-20 07:51:06 51°26.218 2°45.527 342.8 13.1 335 26.1
2011-04-20 07:51:12 51°26.238 2°45.513 342.9 13.1 336 26.8
2011-04-20 07:51:16 51°26.252 2°45.503 342.7 13.2 335 26
2011-04-20 07:51:21 51°26.268 2°45.49 342.5 13.2 335 25.9
2011-04-20 07:51:26 51°26.285 2°45.478 342 13.2 334 26.4
2011-04-20 07:51:32 51°26.305 2°45.463 341.9 13.2 335 26.7
2011-04-20 07:51:36 51°26.318 2°45.453 342 13.2 335 26.5
2011-04-20 07:51:41 51°26.335 2°45.441 342 13.2 335 26.7
2011-04-20 07:51:46 51°26.351 2°45.429 342.2 13.2 335 26.5
2011-04-20 07:51:52 51°26.371 2°45.414 341.9 13.2 335 26.2
2011-04-20 07:51:56 51°26.384 2°45.404 342.1 13.2 335 26.3
2011-04-20 07:52:01 51°26.401 2°45.391 342 13.2 335 26.4
2011-04-20 07:52:06 51°26.418 2°45.379 342 13.2 335 26.6
2011-04-20 07:52:12 51°26.438 2°45.365 342 13.2 336 26.8
2011-04-20 07:52:16 51°26.451 2°45.354 341.9 13.2 335 26.9
2011-04-20 07:52:21 51°26.468 2°45.342 342 13.2 336 27.1
2011-04-20 07:52:27 51°26.487 2°45.328 342 13.2 336 27.2
2011-04-20 07:52:32 51°26.504 2°45.316 342.2 13.2 336 26.9
2011-04-20 07:52:36 51°26.517 2°45.306 342.2 13.2 336 27.1
2011-04-20 07:52:41 51°26.534 2°45.294 341.9 13.2 335 27.5
2011-04-20 07:52:46 51°26.551 2°45.282 341.8 13.1 336 27.1
2011-04-20 07:52:52 51°26.571 2°45.267 341.9 13.2 335 26.9
2011-04-20 07:52:56 51°26.584 2°45.258 342 13.1 336 27.1
2011-04-20 07:53:01 51°26.6 2°45.245 341.9 13.1 336 27
2011-04-20 07:53:06 51°26.617 2°45.234 342.4 13.1 335 27.2
2011-04-20 07:53:12 51°26.637 2°45.219 342.4 13.1 336 27
2011-04-20 07:53:16 51°26.65 2°45.209 342.7 13.2 335 27
2011-04-20 07:53:21 51°26.666 2°45.197 342.2 13.1 335 26.7
2011-04-20 07:53:26 51°26.683 2°45.184 341.9 13.1 334 26.9
2011-04-20 07:53:32 51°26.702 2°45.169 341.7 13.1 333 26.9
2011-04-20 07:53:36 51°26.715 2°45.158 340.8 13.1 333 27.2
2011-04-20 07:53:41 51°26.731 2°45.146 341.3 13 334 26.8
2011-04-20 07:53:46 51°26.747 2°45.133 341.4 12.9 334 27
2011-04-20 07:53:52 51°26.767 2°45.118 342.2 13 334 26.7
2011-04-20 07:53:56 51°26.78 2°45.108 342.2 12.9 335 26.9
2011-04-20 07:54:01 51°26.796 2°45.096 342.7 12.9 334 26.9
2011-04-20 07:54:06 51°26.812 2°45.084 342.3 12.9 335 26.7
2011-04-20 07:54:12 51°26.831 2°45.069 342.7 12.9 334 26.8
2011-04-20 07:54:16 51°26.844 2°45.059 342.6 12.9 335 27
2011-04-20 07:54:21 51°26.86 2°45.047 342.7 12.9 335 27.3
2011-04-20 07:54:27 51°26.88 2°45.032 342.8 12.9 335 27.3
2011-04-20 07:54:32 51°26.896 2°45.02 342.3 12.9 334 27.5
2011-04-20 07:54:36 51°26.909 2°45.009 342.3 12.9 334 27.7
2011-04-20 07:54:41 51°26.925 2°44.997 341.9 12.9 335 27.6
2011-04-20 07:54:47 51°26.944 2°44.982 342.2 12.9 334 27.5
2011-04-20 07:54:52 51°26.961 2°44.97 342.2 12.9 335 27.8
2011-04-20 07:54:56 51°26.974 2°44.96 342.6 12.9 334 27.9
2011-04-20 07:55:01 51°26.99 2°44.948 342.3 12.9 335 27.5
2011-04-20 07:55:07 51°27.009 2°44.933 342.6 12.9 334 27
2011-04-20 07:55:12 51°27.026 2°44.921 342.4 12.9 335 26.4
2011-04-20 07:55:16 51°27.038 2°44.91 342.5 13 334 26.8
2011-04-20 07:55:21 51°27.054 2°44.898 342.1 12.9 335 27
2011-04-20 07:55:26 51°27.071 2°44.885 342 13 333 26.7
2011-04-20 07:55:32 51°27.09 2°44.87 341.6 12.9 335 27.1
2011-04-20 07:55:36 51°27.103 2°44.86 342 13 333 26.8
2011-04-20 07:55:41 51°27.119 2°44.847 341.9 13 335 26.9
2011-04-20 07:55:46 51°27.135 2°44.835 341.9 13 334 27
2011-04-20 07:55:52 51°27.155 2°44.82 342.1 12.9 335 27.1
2011-04-20 07:55:56 51°27.168 2°44.81 342.6 13 335 26.8
2011-04-20 07:56:01 51°27.184 2°44.798 342.7 13 335 26.4
2011-04-20 07:56:06 51°27.201 2°44.786 342.7 13 334 26.3
2011-04-20 07:56:12 51°27.22 2°44.771 342.6 13 335 26.3
2011-04-20 07:56:16 51°27.233 2°44.761 342.4 13 335 26.5
2011-04-20 07:56:21 51°27.25 2°44.75 342.9 13 336 26.5
2011-04-20 07:56:26 51°27.266 2°44.737 342.9 13 335 26.7
2011-04-20 07:56:32 51°27.286 2°44.724 343 13 336 26.5
2011-04-20 07:56:36 51°27.299 2°44.713 342.8 13.1 334 26.6
2011-04-20 07:56:41 51°27.315 2°44.702 342.6 13 336 26.5
2011-04-20 07:56:47 51°27.335 2°44.686 342.2 13.1 334 25.7
2011-04-20 07:56:52 51°27.351 2°44.674 342.2 13 336 24.8
2011-04-20 07:56:56 51°27.364 2°44.663 341.6 13.1 333 25.1
2011-04-20 07:57:01 51°27.381 2°44.652 341.9 13 336 25.1
2011-04-20 07:57:07 51°27.4 2°44.636 341.9 13.1 334 25.6
2011-04-20 07:57:12 51°27.416 2°44.625 342.3 13 336 25.6
2011-04-20 07:57:16 51°27.429 2°44.615 342.7 13 334 25.3
2011-04-20 07:57:21 51°27.446 2°44.603 342.6 13 336 25.1
2011-04-20 07:57:27 51°27.465 2°44.588 342.5 13.1 334 23.8
2011-04-20 07:57:32 51°27.482 2°44.575 342.1 13 335 23.9
2011-04-20 07:57:36 51°27.495 2°44.565 341.9 13.1 334 24.1
2011-04-20 07:57:41 51°27.511 2°44.552 341.3 13 335 24.2
2011-04-20 07:57:46 51°27.527 2°44.539 341.8 13.1 333 24.7
2011-04-20 07:57:52 51°27.547 2°44.525 341.5 13 336 24.6
2011-04-20 07:57:56 51°27.56 2°44.515 342.3 13.1 334 24.8
2011-04-20 07:58:01 51°27.576 2°44.502 341.9 13 335 25.2
2011-04-20 07:58:06 51°27.592 2°44.49 342.4 13.1 334 25.1
2011-04-20 07:58:12 51°27.612 2°44.475 342 13 335 25.3
2011-04-20 07:58:16 51°27.625 2°44.465 341.9 13 334 25.2
2011-04-20 07:58:21 51°27.641 2°44.452 341.9 13 335 25
2011-04-20 07:58:26 51°27.658 2°44.44 342.2 13 334 24.8
2011-04-20 07:58:32 51°27.677 2°44.425 341.7 13 334 25.4
2011-04-20 07:58:36 51°27.69 2°44.415 341.7 13 334 25.7
2011-04-20 07:58:41 51°27.706 2°44.403 341.8 13 335 25.7
2011-04-20 07:58:46 51°27.723 2°44.39 342 13 335 25.7
2011-04-20 07:58:52 51°27.742 2°44.376 342.5 13 335 25.9
2011-04-20 07:58:56 51°27.755 2°44.366 342.6 13 335 26.5
2011-04-20 07:59:01 51°27.772 2°44.354 342.7 13 336 26.3
2011-04-20 07:59:07 51°27.791 2°44.339 342.7 13 335 26
2011-04-20 07:59:12 51°27.808 2°44.328 342.5 13 336 26.5
2011-04-20 07:59:16 51°27.821 2°44.317 342.5 13.1 334 26.1
2011-04-20 07:59:21 51°27.837 2°44.306 342.2 13 336 26.5
2011-04-20 07:59:27 51°27.857 2°44.29 341.9 13.1 334 26.4
2011-04-20 07:59:32 51°27.873 2°44.279 342 12.9 337 26.8
2011-04-20 07:59:36 51°27.886 2°44.268 342.2 13.1 334 26.9
2011-04-20 07:59:41 51°27.903 2°44.257 342.2 12.9 337 27.1
2011-04-20 07:59:46 51°27.919 2°44.244 342.7 13.1 333 27.4
2011-04-20 07:59:52 51°27.939 2°44.231 342.1 12.9 337 27.2
2011-04-20 07:59:56 51°27.952 2°44.22 343 13.1 333 27.6
2011-04-20 08:00:01 51°27.968 2°44.208 342.1 12.9 337 27.7
2011-04-20 08:00:06 51°27.985 2°44.196 342.9 13 334 28.2
2011-04-20 08:00:12 51°28.004 2°44.181 341.9 13 336 28.3
2011-04-20 08:00:16 51°28.017 2°44.173 342.9 12.9 335 28.5
2011-04-20 08:00:21 51°28.033 2°44.159 341.8 13.1 334 28.7
2011-04-20 08:00:26 51°28.05 2°44.148 342.1 12.9 336 28.8
2011-04-20 08:00:32 51°28.069 2°44.131 341.6 13.1 332 29.2
2011-04-20 08:00:36 51°28.083 2°44.123 341.8 12.9 337 29.1
2011-04-20 08:00:41 51°28.099 2°44.109 341.9 13.2 332 29.2
2011-04-20 08:00:46 51°28.115 2°44.098 341.6 12.9 338 29.2
2011-04-20 08:00:52 51°28.135 2°44.082 342.5 13.1 332 29.1
2011-04-20 08:00:56 51°28.148 2°44.073 341.5 13 336 29.2
2011-04-20 08:01:01 51°28.164 2°44.061 342.5 13 333 29.1
2011-04-20 08:01:07 51°28.184 2°44.046 341.6 13 336 29.2
2011-04-20 08:01:12 51°28.2 2°44.034 342.4 13 335 28.7
2011-04-20 08:01:16 51°28.213 2°44.024 342 13.1 334 28.8
2011-04-20 08:01:21 51°28.23 2°44.013 342.7 13 335 27.9
2011-04-20 08:01:27 51°28.249 2°43.998 341.9 13 335 27.1
2011-04-20 08:01:32 51°28.266 2°43.986 342.6 13 336 27.4
2011-04-20 08:01:36 51°28.278 2°43.975 341.7 13.1 333 28.8
2011-04-20 08:01:41 51°28.295 2°43.964 342.1 12.9 336 29
2011-04-20 08:01:47 51°28.314 2°43.949 342 13 334 29.7
2011-04-20 08:01:52 51°28.331 2°43.937 342 13 336 30.2
2011-04-20 08:01:56 51°28.344 2°43.927 341.9 13 334 30.4
2011-04-20 08:02:01 51°28.36 2°43.916 341.9 13 336 30.3
2011-04-20 08:02:06 51°28.376 2°43.903 341.9 13.1 335 30.4
2011-04-20 08:02:12 51°28.396 2°43.889 342.2 13 336 30.3
2011-04-20 08:02:16 51°28.409 2°43.878 341.9 13.1 335 30.2
2011-04-20 08:02:21 51°28.426 2°43.867 342.6 13 336 30.1